sensor_id;sensor_type;location;lat;lon;timestamp;P1;P2;P0
60816;PMS5003;51921;51.518;-3.188;2023-01-16T00:01:42;8;8;
60816;PMS5003;51921;51.518;-3.188;2023-01-16T00:04:07;8;8;
60816;PMS5003;51921;51.518;-3.188;2023-01-16T00:06:33;8;7;
60816;PMS5003;51921;51.518;-3.188;2023-01-16T00:08:59;10;10;
60816;PMS5003;51921;51.518;-3.188;2023-01-16T00:11:25;6;6;
60816;PMS5003;51921;51.518;-3.188;2023-01-16T00:13:50;6;6;
60816;PMS5003;51921;51.518;-3.188;2023-01-16T00:16:16;8;7;
60816;PMS5003;51921;51.518;-3.188;2023-01-16T00:18:41;8;7;
60816;PMS5003;51921;51.518;-3.188;2023-01-16T00:21:07;9;8;
60816;PMS5003;51921;51.518;-3.188;2023-01-16T00:23:32;17;11;
60816;PMS5003;51921;51.518;-3.188;2023-01-16T00:25:57;12;12;
60816;PMS5003;51921;51.518;-3.188;2023-01-16T00:28:23;8;8;
60816;PMS5003;51921;51.518;-3.188;2023-01-16T00:30:48;8;7;
60816;PMS5003;51921;51.518;-3.188;2023-01-16T00:33:14;12;11;
60816;PMS5003;51921;51.518;-3.188;2023-01-16T00:35:40;11;9;
60816;PMS5003;51921;51.518;-3.188;2023-01-16T00:38:06;10;9;
60816;PMS5003;51921;51.518;-3.188;2023-01-16T00:40:31;11;8;
60816;PMS5003;51921;51.518;-3.188;2023-01-16T00:42:57;9;8;
60816;PMS5003;51921;51.518;-3.188;2023-01-16T00:45:23;8;8;
60816;PMS5003;51921;51.518;-3.188;2023-01-16T00:47:48;8;7;
60816;PMS5003;51921;51.518;-3.188;2023-01-16T00:50:14;9;7;
60816;PMS5003;51921;51.518;-3.188;2023-01-16T00:52:39;6;5;
60816;PMS5003;51921;51.518;-3.188;2023-01-16T00:55:05;7;6;
60816;PMS5003;51921;51.518;-3.188;2023-01-16T00:57:31;5;5;
60816;PMS5003;51921;51.518;-3.188;2023-01-16T00:59:56;5;5;
60816;PMS5003;51921;51.518;-3.188;2023-01-16T01:02:22;6;6;
60816;PMS5003;51921;51.518;-3.188;2023-01-16T01:04:48;4;4;
60816;PMS5003;51921;51.518;-3.188;2023-01-16T01:07:13;6;5;
60816;PMS5003;51921;51.518;-3.188;2023-01-16T01:09:39;5;5;
60816;PMS5003;51921;51.518;-3.188;2023-01-16T01:12:04;5;5;
60816;PMS5003;51921;51.518;-3.188;2023-01-16T01:14:30;6;6;
60816;PMS5003;51921;51.518;-3.188;2023-01-16T01:16:55;4;4;
60816;PMS5003;51921;51.518;-3.188;2023-01-16T01:19:21;6;3;
60816;PMS5003;51921;51.518;-3.188;2023-01-16T01:21:47;3;3;
60816;PMS5003;51921;51.518;-3.188;2023-01-16T01:24:12;3;2;
60816;PMS5003;51921;51.518;-3.188;2023-01-16T01:26:38;7;6;
60816;PMS5003;51921;51.518;-3.188;2023-01-16T01:29:03;4;3;
60816;PMS5003;51921;51.518;-3.188;2023-01-16T01:31:29;5;3;
60816;PMS5003;51921;51.518;-3.188;2023-01-16T01:33:54;5;3;
60816;PMS5003;51921;51.518;-3.188;2023-01-16T01:36:20;7;5;
60816;PMS5003;51921;51.518;-3.188;2023-01-16T01:38:45;5;3;
60816;PMS5003;51921;51.518;-3.188;2023-01-16T01:41:11;3;3;
60816;PMS5003;51921;51.518;-3.188;2023-01-16T01:43:41;7;3;
60816;PMS5003;51921;51.518;-3.188;2023-01-16T01:46:02;6;4;
60816;PMS5003;51921;51.518;-3.188;2023-01-16T01:48:29;4;3;
60816;PMS5003;51921;51.518;-3.188;2023-01-16T01:50:55;3;2;
60816;PMS5003;51921;51.518;-3.188;2023-01-16T01:53:21;2;2;
60816;PMS5003;51921;51.518;-3.188;2023-01-16T01:55:46;2;2;
60816;PMS5003;51921;51.518;-3.188;2023-01-16T01:58:10;3;2;
60816;PMS5003;51921;51.518;-3.188;2023-01-16T02:00:36;4;3;
60816;PMS5003;51921;51.518;-3.188;2023-01-16T02:03:03;4;4;
60816;PMS5003;51921;51.518;-3.188;2023-01-16T02:05:28;2;2;
60816;PMS5003;51921;51.518;-3.188;2023-01-16T02:07:53;3;3;
60816;PMS5003;51921;51.518;-3.188;2023-01-16T02:10:21;2;2;
60816;PMS5003;51921;51.518;-3.188;2023-01-16T02:12:44;3;2;
60816;PMS5003;51921;51.518;-3.188;2023-01-16T02:15:10;1;1;
60816;PMS5003;51921;51.518;-3.188;2023-01-16T02:17:38;2;2;
60816;PMS5003;51921;51.518;-3.188;2023-01-16T02:20:06;2;1;
60816;PMS5003;51921;51.518;-3.188;2023-01-16T02:22:31;1;1;
60816;PMS5003;51921;51.518;-3.188;2023-01-16T02:27:25;3;2;
60816;PMS5003;51921;51.518;-3.188;2023-01-16T02:32:10;2;2;
60816;PMS5003;51921;51.518;-3.188;2023-01-16T02:34:38;3;1;
60816;PMS5003;51921;51.518;-3.188;2023-01-16T02:37:03;2;2;
60816;PMS5003;51921;51.518;-3.188;2023-01-16T02:39:30;2;1;
60816;PMS5003;51921;51.518;-3.188;2023-01-16T02:41:52;2;1;
60816;PMS5003;51921;51.518;-3.188;2023-01-16T02:44:20;2;2;
60816;PMS5003;51921;51.518;-3.188;2023-01-16T02:46:45;3;2;
60816;PMS5003;51921;51.518;-3.188;2023-01-16T02:49:09;3;3;
60816;PMS5003;51921;51.518;-3.188;2023-01-16T02:51:36;3;2;
60816;PMS5003;51921;51.518;-3.188;2023-01-16T02:54:00;2;2;
60816;PMS5003;51921;51.518;-3.188;2023-01-16T02:56:29;2;1;
60816;PMS5003;51921;51.518;-3.188;2023-01-16T02:58:50;4;3;
60816;PMS5003;51921;51.518;-3.188;2023-01-16T03:01:17;3;2;
60816;PMS5003;51921;51.518;-3.188;2023-01-16T03:03:42;3;2;
60816;PMS5003;51921;51.518;-3.188;2023-01-16T03:06:16;1;1;
60816;PMS5003;51921;51.518;-3.188;2023-01-16T03:08:35;1;1;
60816;PMS5003;51921;51.518;-3.188;2023-01-16T03:13:28;3;1;
60816;PMS5003;51921;51.518;-3.188;2023-01-16T03:15:52;1;0;
60816;PMS5003;51921;51.518;-3.188;2023-01-16T03:18:18;3;2;
60816;PMS5003;51921;51.518;-3.188;2023-01-16T03:20:46;1;1;
60816;PMS5003;51921;51.518;-3.188;2023-01-16T03:23:08;1;1;
60816;PMS5003;51921;51.518;-3.188;2023-01-16T03:25:34;2;2;
60816;PMS5003;51921;51.518;-3.188;2023-01-16T03:28:00;1;1;
60816;PMS5003;51921;51.518;-3.188;2023-01-16T03:30:25;3;2;
60816;PMS5003;51921;51.518;-3.188;2023-01-16T03:32:50;2;1;
60816;PMS5003;51921;51.518;-3.188;2023-01-16T03:35:16;5;4;
60816;PMS5003;51921;51.518;-3.188;2023-01-16T03:37:41;3;1;
60816;PMS5003;51921;51.518;-3.188;2023-01-16T03:40:07;2;1;
60816;PMS5003;51921;51.518;-3.188;2023-01-16T03:42:34;2;2;
60816;PMS5003;51921;51.518;-3.188;2023-01-16T03:45:00;2;1;
60816;PMS5003;51921;51.518;-3.188;2023-01-16T03:47:25;2;2;
60816;PMS5003;51921;51.518;-3.188;2023-01-16T03:49:51;1;1;
60816;PMS5003;51921;51.518;-3.188;2023-01-16T03:52:15;1;1;
60816;PMS5003;51921;51.518;-3.188;2023-01-16T03:54:42;3;2;
60816;PMS5003;51921;51.518;-3.188;2023-01-16T03:57:07;2;1;
60816;PMS5003;51921;51.518;-3.188;2023-01-16T03:59:32;1;1;
60816;PMS5003;51921;51.518;-3.188;2023-01-16T04:01:58;1;1;
60816;PMS5003;51921;51.518;-3.188;2023-01-16T04:04:24;1;1;
60816;PMS5003;51921;51.518;-3.188;2023-01-16T04:06:50;1;1;
60816;PMS5003;51921;51.518;-3.188;2023-01-16T04:09:16;1;1;
60816;PMS5003;51921;51.518;-3.188;2023-01-16T04:11:40;0;0;
60816;PMS5003;51921;51.518;-3.188;2023-01-16T04:14:06;2;1;
60816;PMS5003;51921;51.518;-3.188;2023-01-16T04:16:31;1;1;
60816;PMS5003;51921;51.518;-3.188;2023-01-16T04:18:57;2;1;
60816;PMS5003;51921;51.518;-3.188;2023-01-16T04:21:25;0;0;
60816;PMS5003;51921;51.518;-3.188;2023-01-16T04:23:49;4;2;
60816;PMS5003;51921;51.518;-3.188;2023-01-16T04:26:14;2;1;
60816;PMS5003;51921;51.518;-3.188;2023-01-16T04:28:40;1;1;
60816;PMS5003;51921;51.518;-3.188;2023-01-16T04:31:05;3;2;
60816;PMS5003;51921;51.518;-3.188;2023-01-16T04:33:31;1;1;
60816;PMS5003;51921;51.518;-3.188;2023-01-16T04:35:57;1;1;
60816;PMS5003;51921;51.518;-3.188;2023-01-16T04:38:22;1;1;
60816;PMS5003;51921;51.518;-3.188;2023-01-16T04:40:48;2;2;
60816;PMS5003;51921;51.518;-3.188;2023-01-16T04:43:14;1;0;
60816;PMS5003;51921;51.518;-3.188;2023-01-16T04:45:40;2;1;
60816;PMS5003;51921;51.518;-3.188;2023-01-16T04:48:06;1;1;
60816;PMS5003;51921;51.518;-3.188;2023-01-16T04:50:31;1;1;
60816;PMS5003;51921;51.518;-3.188;2023-01-16T04:52:57;1;1;
60816;PMS5003;51921;51.518;-3.188;2023-01-16T04:55:22;1;1;
60816;PMS5003;51921;51.518;-3.188;2023-01-16T04:57:48;1;1;
60816;PMS5003;51921;51.518;-3.188;2023-01-16T05:00:14;1;1;
60816;PMS5003;51921;51.518;-3.188;2023-01-16T05:02:39;2;1;
60816;PMS5003;51921;51.518;-3.188;2023-01-16T05:05:05;1;1;
60816;PMS5003;51921;51.518;-3.188;2023-01-16T05:07:31;1;1;
60816;PMS5003;51921;51.518;-3.188;2023-01-16T05:09:56;2;2;
60816;PMS5003;51921;51.518;-3.188;2023-01-16T05:12:22;2;1;
60816;PMS5003;51921;51.518;-3.188;2023-01-16T05:14:48;1;1;
60816;PMS5003;51921;51.518;-3.188;2023-01-16T05:17:13;1;1;
60816;PMS5003;51921;51.518;-3.188;2023-01-16T05:19:39;1;1;
60816;PMS5003;51921;51.518;-3.188;2023-01-16T05:22:05;1;1;
60816;PMS5003;51921;51.518;-3.188;2023-01-16T05:24:30;0;0;
60816;PMS5003;51921;51.518;-3.188;2023-01-16T05:26:56;0;0;
60816;PMS5003;51921;51.518;-3.188;2023-01-16T05:29:22;1;0;
60816;PMS5003;51921;51.518;-3.188;2023-01-16T05:31:47;1;0;
60816;PMS5003;51921;51.518;-3.188;2023-01-16T05:34:13;0;0;
60816;PMS5003;51921;51.518;-3.188;2023-01-16T05:36:39;1;0;
60816;PMS5003;51921;51.518;-3.188;2023-01-16T05:39:04;1;1;
60816;PMS5003;51921;51.518;-3.188;2023-01-16T05:41:30;0;0;
60816;PMS5003;51921;51.518;-3.188;2023-01-16T05:43:56;0;0;
60816;PMS5003;51921;51.518;-3.188;2023-01-16T05:46:21;0;0;
60816;PMS5003;51921;51.518;-3.188;2023-01-16T05:48:47;0;0;
60816;PMS5003;51921;51.518;-3.188;2023-01-16T05:51:13;0;0;
60816;PMS5003;51921;51.518;-3.188;2023-01-16T05:53:38;1;1;
60816;PMS5003;51921;51.518;-3.188;2023-01-16T05:56:06;0;0;
60816;PMS5003;51921;51.518;-3.188;2023-01-16T05:58:30;1;0;
60816;PMS5003;51921;51.518;-3.188;2023-01-16T06:00:55;0;0;
60816;PMS5003;51921;51.518;-3.188;2023-01-16T06:03:21;0;0;
60816;PMS5003;51921;51.518;-3.188;2023-01-16T06:05:47;0;0;
60816;PMS5003;51921;51.518;-3.188;2023-01-16T06:13:03;0;0;
60816;PMS5003;51921;51.518;-3.188;2023-01-16T06:15:29;0;0;
60816;PMS5003;51921;51.518;-3.188;2023-01-16T06:17:55;2;1;
60816;PMS5003;51921;51.518;-3.188;2023-01-16T06:20:20;0;0;
60816;PMS5003;51921;51.518;-3.188;2023-01-16T06:22:46;0;0;
60816;PMS5003;51921;51.518;-3.188;2023-01-16T06:25:12;1;0;
60816;PMS5003;51921;51.518;-3.188;2023-01-16T06:27:37;0;0;
60816;PMS5003;51921;51.518;-3.188;2023-01-16T06:32:29;0;0;
60816;PMS5003;51921;51.518;-3.188;2023-01-16T06:34:55;1;0;
60816;PMS5003;51921;51.518;-3.188;2023-01-16T06:37:20;0;0;
60816;PMS5003;51921;51.518;-3.188;2023-01-16T06:39:46;0;0;
60816;PMS5003;51921;51.518;-3.188;2023-01-16T06:42:11;0;0;
60816;PMS5003;51921;51.518;-3.188;2023-01-16T06:44:37;0;0;
60816;PMS5003;51921;51.518;-3.188;2023-01-16T06:47:03;0;0;
60816;PMS5003;51921;51.518;-3.188;2023-01-16T06:49:28;0;0;
60816;PMS5003;51921;51.518;-3.188;2023-01-16T06:51:54;0;0;
60816;PMS5003;51921;51.518;-3.188;2023-01-16T06:54:20;0;0;
60816;PMS5003;51921;51.518;-3.188;2023-01-16T06:56:46;0;0;
60816;PMS5003;51921;51.518;-3.188;2023-01-16T06:59:11;0;0;
60816;PMS5003;51921;51.518;-3.188;2023-01-16T07:01:37;0;0;
60816;PMS5003;51921;51.518;-3.188;2023-01-16T07:04:03;0;0;
60816;PMS5003;51921;51.518;-3.188;2023-01-16T07:06:28;0;0;
60816;PMS5003;51921;51.518;-3.188;2023-01-16T07:08:54;0;0;
60816;PMS5003;51921;51.518;-3.188;2023-01-16T07:11:20;0;0;
60816;PMS5003;51921;51.518;-3.188;2023-01-16T07:13:46;0;0;
60816;PMS5003;51921;51.518;-3.188;2023-01-16T07:16:11;0;0;
60816;PMS5003;51921;51.518;-3.188;2023-01-16T07:18:37;0;0;
60816;PMS5003;51921;51.518;-3.188;2023-01-16T07:21:03;0;0;
60816;PMS5003;51921;51.518;-3.188;2023-01-16T07:23:29;0;0;
60816;PMS5003;51921;51.518;-3.188;2023-01-16T07:25:54;0;0;
60816;PMS5003;51921;51.518;-3.188;2023-01-16T07:28:19;0;0;
60816;PMS5003;51921;51.518;-3.188;2023-01-16T07:30:46;0;0;
60816;PMS5003;51921;51.518;-3.188;2023-01-16T07:33:11;0;0;
60816;PMS5003;51921;51.518;-3.188;2023-01-16T07:35:36;0;0;
60816;PMS5003;51921;51.518;-3.188;2023-01-16T07:38:02;0;0;
60816;PMS5003;51921;51.518;-3.188;2023-01-16T07:40:28;0;0;
60816;PMS5003;51921;51.518;-3.188;2023-01-16T07:42:53;0;0;
60816;PMS5003;51921;51.518;-3.188;2023-01-16T07:45:19;0;0;
60816;PMS5003;51921;51.518;-3.188;2023-01-16T07:47:45;0;0;
60816;PMS5003;51921;51.518;-3.188;2023-01-16T07:50:10;0;0;
60816;PMS5003;51921;51.518;-3.188;2023-01-16T07:52:36;1;0;
60816;PMS5003;51921;51.518;-3.188;2023-01-16T07:55:02;1;1;
60816;PMS5003;51921;51.518;-3.188;2023-01-16T07:57:27;1;1;
60816;PMS5003;51921;51.518;-3.188;2023-01-16T07:59:53;1;1;
60816;PMS5003;51921;51.518;-3.188;2023-01-16T08:02:19;0;0;
60816;PMS5003;51921;51.518;-3.188;2023-01-16T08:04:44;1;1;
60816;PMS5003;51921;51.518;-3.188;2023-01-16T08:07:10;1;1;
60816;PMS5003;51921;51.518;-3.188;2023-01-16T08:09:36;1;1;
60816;PMS5003;51921;51.518;-3.188;2023-01-16T08:12:01;0;0;
60816;PMS5003;51921;51.518;-3.188;2023-01-16T08:14:27;1;1;
60816;PMS5003;51921;51.518;-3.188;2023-01-16T08:16:53;1;1;
60816;PMS5003;51921;51.518;-3.188;2023-01-16T08:19:18;1;1;
60816;PMS5003;51921;51.518;-3.188;2023-01-16T08:21:44;2;1;
60816;PMS5003;51921;51.518;-3.188;2023-01-16T08:24:10;3;2;
60816;PMS5003;51921;51.518;-3.188;2023-01-16T08:26:35;3;3;
60816;PMS5003;51921;51.518;-3.188;2023-01-16T08:29:01;3;2;
60816;PMS5003;51921;51.518;-3.188;2023-01-16T08:31:30;2;2;
60816;PMS5003;51921;51.518;-3.188;2023-01-16T08:33:52;1;1;
60816;PMS5003;51921;51.518;-3.188;2023-01-16T08:36:18;1;1;
60816;PMS5003;51921;51.518;-3.188;2023-01-16T08:38:44;1;1;
60816;PMS5003;51921;51.518;-3.188;2023-01-16T08:41:10;2;2;
60816;PMS5003;51921;51.518;-3.188;2023-01-16T08:43:35;2;2;
60816;PMS5003;51921;51.518;-3.188;2023-01-16T08:46:01;1;1;
60816;PMS5003;51921;51.518;-3.188;2023-01-16T08:48:27;1;1;
60816;PMS5003;51921;51.518;-3.188;2023-01-16T08:50:52;2;1;
60816;PMS5003;51921;51.518;-3.188;2023-01-16T08:53:18;2;2;
60816;PMS5003;51921;51.518;-3.188;2023-01-16T08:55:44;1;1;
60816;PMS5003;51921;51.518;-3.188;2023-01-16T08:58:09;2;2;
60816;PMS5003;51921;51.518;-3.188;2023-01-16T09:00:35;2;2;
60816;PMS5003;51921;51.518;-3.188;2023-01-16T09:03:01;2;1;
60816;PMS5003;51921;51.518;-3.188;2023-01-16T09:05:27;3;3;
60816;PMS5003;51921;51.518;-3.188;2023-01-16T09:07:52;4;3;
60816;PMS5003;51921;51.518;-3.188;2023-01-16T09:10:18;3;3;
60816;PMS5003;51921;51.518;-3.188;2023-01-16T09:12:44;2;2;
60816;PMS5003;51921;51.518;-3.188;2023-01-16T09:15:09;3;2;
60816;PMS5003;51921;51.518;-3.188;2023-01-16T09:17:35;2;2;
60816;PMS5003;51921;51.518;-3.188;2023-01-16T09:20:01;3;3;
60816;PMS5003;51921;51.518;-3.188;2023-01-16T09:22:26;3;3;
60816;PMS5003;51921;51.518;-3.188;2023-01-16T09:24:52;4;4;
60816;PMS5003;51921;51.518;-3.188;2023-01-16T09:27:18;4;4;
60816;PMS5003;51921;51.518;-3.188;2023-01-16T09:29:43;1;1;
60816;PMS5003;51921;51.518;-3.188;2023-01-16T09:32:09;3;3;
60816;PMS5003;51921;51.518;-3.188;2023-01-16T09:34:35;3;3;
60816;PMS5003;51921;51.518;-3.188;2023-01-16T09:37:00;2;2;
60816;PMS5003;51921;51.518;-3.188;2023-01-16T09:39:26;2;2;
60816;PMS5003;51921;51.518;-3.188;2023-01-16T09:41:55;2;2;
60816;PMS5003;51921;51.518;-3.188;2023-01-16T09:44:17;2;2;
60816;PMS5003;51921;51.518;-3.188;2023-01-16T09:46:44;3;2;
60816;PMS5003;51921;51.518;-3.188;2023-01-16T09:51:35;3;3;
60816;PMS5003;51921;51.518;-3.188;2023-01-16T09:54:00;3;3;
60816;PMS5003;51921;51.518;-3.188;2023-01-16T09:56:27;6;4;
60816;PMS5003;51921;51.518;-3.188;2023-01-16T09:58:55;3;3;
60816;PMS5003;51921;51.518;-3.188;2023-01-16T10:01:19;3;3;
60816;PMS5003;51921;51.518;-3.188;2023-01-16T10:03:42;2;2;
60816;PMS5003;51921;51.518;-3.188;2023-01-16T10:06:12;3;3;
60816;PMS5003;51921;51.518;-3.188;2023-01-16T10:08:35;2;2;
60816;PMS5003;51921;51.518;-3.188;2023-01-16T10:11:02;3;2;
60816;PMS5003;51921;51.518;-3.188;2023-01-16T10:13:31;2;2;
60816;PMS5003;51921;51.518;-3.188;2023-01-16T10:15:52;1;1;
60816;PMS5003;51921;51.518;-3.188;2023-01-16T10:18:21;1;1;
60816;PMS5003;51921;51.518;-3.188;2023-01-16T10:20:45;2;2;
60816;PMS5003;51921;51.518;-3.188;2023-01-16T10:23:11;2;2;
60816;PMS5003;51921;51.518;-3.188;2023-01-16T10:25:35;1;1;
60816;PMS5003;51921;51.518;-3.188;2023-01-16T10:28:03;2;1;
60816;PMS5003;51921;51.518;-3.188;2023-01-16T10:30:25;1;1;
60816;PMS5003;51921;51.518;-3.188;2023-01-16T10:32:51;2;2;
60816;PMS5003;51921;51.518;-3.188;2023-01-16T10:35:18;1;1;
60816;PMS5003;51921;51.518;-3.188;2023-01-16T10:37:42;0;0;
60816;PMS5003;51921;51.518;-3.188;2023-01-16T10:40:10;1;0;
60816;PMS5003;51921;51.518;-3.188;2023-01-16T10:42:33;0;0;
60816;PMS5003;51921;51.518;-3.188;2023-01-16T10:45:08;1;1;
60816;PMS5003;51921;51.518;-3.188;2023-01-16T10:47:26;1;1;
60816;PMS5003;51921;51.518;-3.188;2023-01-16T10:49:50;0;0;
60816;PMS5003;51921;51.518;-3.188;2023-01-16T10:52:16;1;0;
60816;PMS5003;51921;51.518;-3.188;2023-01-16T10:54:41;1;1;
60816;PMS5003;51921;51.518;-3.188;2023-01-16T10:57:09;1;1;
60816;PMS5003;51921;51.518;-3.188;2023-01-16T10:59:33;0;0;
60816;PMS5003;51921;51.518;-3.188;2023-01-16T11:02:00;0;0;
60816;PMS5003;51921;51.518;-3.188;2023-01-16T11:04:24;0;0;
60816;PMS5003;51921;51.518;-3.188;2023-01-16T11:06:49;0;0;
60816;PMS5003;51921;51.518;-3.188;2023-01-16T11:09:16;1;1;
60816;PMS5003;51921;51.518;-3.188;2023-01-16T11:11:41;1;0;
60816;PMS5003;51921;51.518;-3.188;2023-01-16T11:14:11;0;0;
60816;PMS5003;51921;51.518;-3.188;2023-01-16T11:16:32;0;0;
60816;PMS5003;51921;51.518;-3.188;2023-01-16T11:18:58;0;0;
60816;PMS5003;51921;51.518;-3.188;2023-01-16T11:21:24;1;1;
60816;PMS5003;51921;51.518;-3.188;2023-01-16T11:23:49;0;0;
60816;PMS5003;51921;51.518;-3.188;2023-01-16T11:26:15;1;1;
60816;PMS5003;51921;51.518;-3.188;2023-01-16T11:28:43;1;1;
60816;PMS5003;51921;51.518;-3.188;2023-01-16T11:31:09;1;0;
60816;PMS5003;51921;51.518;-3.188;2023-01-16T11:33:33;1;1;
60816;PMS5003;51921;51.518;-3.188;2023-01-16T11:35:57;0;0;
60816;PMS5003;51921;51.518;-3.188;2023-01-16T11:38:23;1;1;
60816;PMS5003;51921;51.518;-3.188;2023-01-16T11:40:48;2;1;
60816;PMS5003;51921;51.518;-3.188;2023-01-16T11:43:15;3;1;
60816;PMS5003;51921;51.518;-3.188;2023-01-16T11:45:43;0;0;
60816;PMS5003;51921;51.518;-3.188;2023-01-16T11:48:06;2;1;
60816;PMS5003;51921;51.518;-3.188;2023-01-16T11:50:36;3;1;
60816;PMS5003;51921;51.518;-3.188;2023-01-16T11:52:56;1;0;
60816;PMS5003;51921;51.518;-3.188;2023-01-16T11:55:24;0;0;
60816;PMS5003;51921;51.518;-3.188;2023-01-16T11:57:48;1;1;
60816;PMS5003;51921;51.518;-3.188;2023-01-16T12:00:17;2;2;
60816;PMS5003;51921;51.518;-3.188;2023-01-16T12:02:44;0;0;
60816;PMS5003;51921;51.518;-3.188;2023-01-16T12:05:07;0;0;
60816;PMS5003;51921;51.518;-3.188;2023-01-16T12:07:33;1;1;
60816;PMS5003;51921;51.518;-3.188;2023-01-16T12:09:56;2;2;
60816;PMS5003;51921;51.518;-3.188;2023-01-16T12:12:24;0;0;
60816;PMS5003;51921;51.518;-3.188;2023-01-16T12:14:48;0;0;
60816;PMS5003;51921;51.518;-3.188;2023-01-16T12:17:15;0;0;
60816;PMS5003;51921;51.518;-3.188;2023-01-16T12:19:52;0;0;
60816;PMS5003;51921;51.518;-3.188;2023-01-16T12:22:06;3;1;
60816;PMS5003;51921;51.518;-3.188;2023-01-16T12:24:32;1;0;
60816;PMS5003;51921;51.518;-3.188;2023-01-16T12:27:05;0;0;
60816;PMS5003;51921;51.518;-3.188;2023-01-16T12:29:25;1;0;
60816;PMS5003;51921;51.518;-3.188;2023-01-16T12:31:51;2;0;
60816;PMS5003;51921;51.518;-3.188;2023-01-16T12:34:18;0;0;
60816;PMS5003;51921;51.518;-3.188;2023-01-16T12:36:40;0;0;
60816;PMS5003;51921;51.518;-3.188;2023-01-16T12:39:06;0;0;
60816;PMS5003;51921;51.518;-3.188;2023-01-16T12:41:30;0;0;
60816;PMS5003;51921;51.518;-3.188;2023-01-16T12:44:00;0;0;
60816;PMS5003;51921;51.518;-3.188;2023-01-16T12:46:23;0;0;
60816;PMS5003;51921;51.518;-3.188;2023-01-16T12:48:50;1;1;
60816;PMS5003;51921;51.518;-3.188;2023-01-16T12:51:17;0;0;
60816;PMS5003;51921;51.518;-3.188;2023-01-16T12:53:42;0;0;
60816;PMS5003;51921;51.518;-3.188;2023-01-16T12:58:30;0;0;
60816;PMS5003;51921;51.518;-3.188;2023-01-16T13:01:00;0;0;
60816;PMS5003;51921;51.518;-3.188;2023-01-16T13:03:23;0;0;
60816;PMS5003;51921;51.518;-3.188;2023-01-16T13:05:46;1;1;
60816;PMS5003;51921;51.518;-3.188;2023-01-16T13:08:14;1;0;
60816;PMS5003;51921;51.518;-3.188;2023-01-16T13:10:38;0;0;
60816;PMS5003;51921;51.518;-3.188;2023-01-16T13:13:03;1;0;
60816;PMS5003;51921;51.518;-3.188;2023-01-16T13:15:30;0;0;
60816;PMS5003;51921;51.518;-3.188;2023-01-16T13:17:55;0;0;
60816;PMS5003;51921;51.518;-3.188;2023-01-16T13:20:20;1;0;
60816;PMS5003;51921;51.518;-3.188;2023-01-16T13:22:46;0;0;
60816;PMS5003;51921;51.518;-3.188;2023-01-16T13:25:14;0;0;
60816;PMS5003;51921;51.518;-3.188;2023-01-16T13:27:38;0;0;
60816;PMS5003;51921;51.518;-3.188;2023-01-16T13:30:03;0;0;
60816;PMS5003;51921;51.518;-3.188;2023-01-16T13:32:28;0;0;
60816;PMS5003;51921;51.518;-3.188;2023-01-16T13:34:54;0;0;
60816;PMS5003;51921;51.518;-3.188;2023-01-16T13:37:30;0;0;
60816;PMS5003;51921;51.518;-3.188;2023-01-16T13:39:50;0;0;
60816;PMS5003;51921;51.518;-3.188;2023-01-16T13:42:10;0;0;
60816;PMS5003;51921;51.518;-3.188;2023-01-16T13:44:36;0;0;
60816;PMS5003;51921;51.518;-3.188;2023-01-16T13:47:03;0;0;
60816;PMS5003;51921;51.518;-3.188;2023-01-16T13:49:27;0;0;
60816;PMS5003;51921;51.518;-3.188;2023-01-16T13:51:53;0;0;
60816;PMS5003;51921;51.518;-3.188;2023-01-16T13:54:19;0;0;
60816;PMS5003;51921;51.518;-3.188;2023-01-16T13:59:17;1;0;
60816;PMS5003;51921;51.518;-3.188;2023-01-16T14:01:36;2;1;
60816;PMS5003;51921;51.518;-3.188;2023-01-16T14:04:10;1;0;
60816;PMS5003;51921;51.518;-3.188;2023-01-16T14:06:27;0;0;
60816;PMS5003;51921;51.518;-3.188;2023-01-16T14:11:27;0;0;
60816;PMS5003;51921;51.518;-3.188;2023-01-16T14:13:44;1;0;
60816;PMS5003;51921;51.518;-3.188;2023-01-16T14:18:35;0;0;
60816;PMS5003;51921;51.518;-3.188;2023-01-16T14:21:01;0;0;
60816;PMS5003;51921;51.518;-3.188;2023-01-16T14:23:28;0;0;
60816;PMS5003;51921;51.518;-3.188;2023-01-16T14:25:52;0;0;
60816;PMS5003;51921;51.518;-3.188;2023-01-16T14:28:17;1;0;
60816;PMS5003;51921;51.518;-3.188;2023-01-16T14:35:41;0;0;
60816;PMS5003;51921;51.518;-3.188;2023-01-16T14:38:00;0;0;
60816;PMS5003;51921;51.518;-3.188;2023-01-16T14:40:27;0;0;
60816;PMS5003;51921;51.518;-3.188;2023-01-16T14:42:52;1;1;
60816;PMS5003;51921;51.518;-3.188;2023-01-16T14:45:20;1;1;
60816;PMS5003;51921;51.518;-3.188;2023-01-16T14:47:45;0;0;
60816;PMS5003;51921;51.518;-3.188;2023-01-16T14:50:09;0;0;
60816;PMS5003;51921;51.518;-3.188;2023-01-16T14:52:36;0;0;
60816;PMS5003;51921;51.518;-3.188;2023-01-16T14:54:59;0;0;
60816;PMS5003;51921;51.518;-3.188;2023-01-16T14:57:25;0;0;
60816;PMS5003;51921;51.518;-3.188;2023-01-16T14:59:51;0;0;
60816;PMS5003;51921;51.518;-3.188;2023-01-16T15:02:17;0;0;
60816;PMS5003;51921;51.518;-3.188;2023-01-16T15:04:44;0;0;
60816;PMS5003;51921;51.518;-3.188;2023-01-16T15:07:08;0;0;
60816;PMS5003;51921;51.518;-3.188;2023-01-16T15:09:33;0;0;
60816;PMS5003;51921;51.518;-3.188;2023-01-16T15:11:59;0;0;
60816;PMS5003;51921;51.518;-3.188;2023-01-16T15:14:25;0;0;
60816;PMS5003;51921;51.518;-3.188;2023-01-16T15:16:50;0;0;
60816;PMS5003;51921;51.518;-3.188;2023-01-16T15:19:16;1;0;
60816;PMS5003;51921;51.518;-3.188;2023-01-16T15:21:45;0;0;
60816;PMS5003;51921;51.518;-3.188;2023-01-16T15:24:07;0;0;
60816;PMS5003;51921;51.518;-3.188;2023-01-16T15:26:40;1;1;
60816;PMS5003;51921;51.518;-3.188;2023-01-16T15:29:02;0;0;
60816;PMS5003;51921;51.518;-3.188;2023-01-16T15:31:25;1;0;
60816;PMS5003;51921;51.518;-3.188;2023-01-16T15:36:18;1;1;
60816;PMS5003;51921;51.518;-3.188;2023-01-16T15:38:44;0;0;
60816;PMS5003;51921;51.518;-3.188;2023-01-16T15:41:07;0;0;
60816;PMS5003;51921;51.518;-3.188;2023-01-16T15:43:33;0;0;
60816;PMS5003;51921;51.518;-3.188;2023-01-16T15:45:59;0;0;
60816;PMS5003;51921;51.518;-3.188;2023-01-16T15:48:28;0;0;
60816;PMS5003;51921;51.518;-3.188;2023-01-16T15:50:52;0;0;
60816;PMS5003;51921;51.518;-3.188;2023-01-16T15:53:15;0;0;
60816;PMS5003;51921;51.518;-3.188;2023-01-16T15:55:42;0;0;
60816;PMS5003;51921;51.518;-3.188;2023-01-16T15:58:10;1;1;
60816;PMS5003;51921;51.518;-3.188;2023-01-16T16:00:33;1;1;
60816;PMS5003;51921;51.518;-3.188;2023-01-16T16:02:58;1;0;
60816;PMS5003;51921;51.518;-3.188;2023-01-16T16:05:23;2;1;
60816;PMS5003;51921;51.518;-3.188;2023-01-16T16:07:49;1;1;
60816;PMS5003;51921;51.518;-3.188;2023-01-16T16:10:15;1;1;
60816;PMS5003;51921;51.518;-3.188;2023-01-16T16:12:41;2;1;
60816;PMS5003;51921;51.518;-3.188;2023-01-16T16:15:16;1;1;
60816;PMS5003;51921;51.518;-3.188;2023-01-16T16:17:32;0;0;
60816;PMS5003;51921;51.518;-3.188;2023-01-16T16:19:58;0;0;
60816;PMS5003;51921;51.518;-3.188;2023-01-16T16:22:23;0;0;
60816;PMS5003;51921;51.518;-3.188;2023-01-16T16:24:49;0;0;
60816;PMS5003;51921;51.518;-3.188;2023-01-16T16:27:15;1;1;
60816;PMS5003;51921;51.518;-3.188;2023-01-16T16:29:40;2;2;
60816;PMS5003;51921;51.518;-3.188;2023-01-16T16:32:10;5;3;
60816;PMS5003;51921;51.518;-3.188;2023-01-16T16:34:31;5;2;
60816;PMS5003;51921;51.518;-3.188;2023-01-16T16:36:57;2;2;
60816;PMS5003;51921;51.518;-3.188;2023-01-16T16:39:28;4;2;
60816;PMS5003;51921;51.518;-3.188;2023-01-16T16:41:48;2;2;
60816;PMS5003;51921;51.518;-3.188;2023-01-16T16:44:15;1;1;
60816;PMS5003;51921;51.518;-3.188;2023-01-16T16:46:40;2;2;
60816;PMS5003;51921;51.518;-3.188;2023-01-16T16:51:31;8;8;
60816;PMS5003;51921;51.518;-3.188;2023-01-16T16:53:57;9;8;
60816;PMS5003;51921;51.518;-3.188;2023-01-16T16:56:23;8;7;
60816;PMS5003;51921;51.518;-3.188;2023-01-16T16:58:48;8;8;